sensor_id;sensor_type;location;lat;lon;timestamp;pressure;altitude;pressure_sealevel;temperature;humidity
21828;BME280;11076;47.942;11.804;2023-04-19T00:02:27;94714.00;;;7.55;100.00
21828;BME280;11076;47.942;11.804;2023-04-19T00:07:31;94704.88;;;7.64;100.00
21828;BME280;11076;47.942;11.804;2023-04-19T00:12:33;94701.34;;;7.64;100.00
21828;BME280;11076;47.942;11.804;2023-04-19T00:17:35;94701.81;;;7.67;100.00
21828;BME280;11076;47.942;11.804;2023-04-19T00:22:39;94699.78;;;7.69;100.00
21828;BME280;11076;47.942;11.804;2023-04-19T00:27:41;94688.28;;;7.62;100.00
21828;BME280;11076;47.942;11.804;2023-04-19T00:32:43;94689.78;;;7.50;100.00
21828;BME280;11076;47.942;11.804;2023-04-19T00:37:46;94682.41;;;7.45;100.00
21828;BME280;11076;47.942;11.804;2023-04-19T00:42:48;94679.88;;;7.37;100.00
21828;BME280;11076;47.942;11.804;2023-04-19T00:47:52;94677.41;;;7.35;100.00
21828;BME280;11076;47.942;11.804;2023-04-19T00:52:54;94676.84;;;7.40;100.00
21828;BME280;11076;47.942;11.804;2023-04-19T00:57:59;94678.44;;;7.34;100.00
21828;BME280;11076;47.942;11.804;2023-04-19T01:03:01;94676.00;;;7.40;100.00
21828;BME280;11076;47.942;11.804;2023-04-19T01:08:05;94676.47;;;7.50;100.00
21828;BME280;11076;47.942;11.804;2023-04-19T01:13:07;94670.34;;;7.49;100.00
21828;BME280;11076;47.942;11.804;2023-04-19T01:18:11;94664.22;;;7.49;100.00
21828;BME280;11076;47.942;11.804;2023-04-19T01:23:16;94661.94;;;7.46;100.00
21828;BME280;11076;47.942;11.804;2023-04-19T01:28:19;94657.44;;;7.46;100.00
21828;BME280;11076;47.942;11.804;2023-04-19T01:33:24;94652.47;;;7.36;100.00
21828;BME280;11076;47.942;11.804;2023-04-19T01:38:26;94653.59;;;7.27;100.00
21828;BME280;11076;47.942;11.804;2023-04-19T01:43:28;94651.06;;;7.19;100.00
21828;BME280;11076;47.942;11.804;2023-04-19T01:48:31;94645.75;;;7.19;100.00
21828;BME280;11076;47.942;11.804;2023-04-19T01:53:34;94645.13;;;7.17;100.00
21828;BME280;11076;47.942;11.804;2023-04-19T01:58:36;94648.69;;;7.24;100.00
21828;BME280;11076;47.942;11.804;2023-04-19T02:03:39;94636.25;;;7.31;100.00
21828;BME280;11076;47.942;11.804;2023-04-19T02:08:41;94630.41;;;7.43;100.00
21828;BME280;11076;47.942;11.804;2023-04-19T02:13:44;94629.16;;;7.39;100.00
21828;BME280;11076;47.942;11.804;2023-04-19T02:18:46;94619.63;;;7.23;100.00
21828;BME280;11076;47.942;11.804;2023-04-19T02:23:49;94621.88;;;7.26;100.00
21828;BME280;11076;47.942;11.804;2023-04-19T02:28:51;94615.22;;;7.36;100.00
21828;BME280;11076;47.942;11.804;2023-04-19T02:33:54;94604.28;;;7.25;100.00
21828;BME280;11076;47.942;11.804;2023-04-19T02:38:56;94609.88;;;7.08;100.00
21828;BME280;11076;47.942;11.804;2023-04-19T02:44:00;94605.38;;;7.09;100.00
21828;BME280;11076;47.942;11.804;2023-04-19T02:49:02;94606.03;;;7.11;100.00
21828;BME280;11076;47.942;11.804;2023-04-19T02:54:05;94594.75;;;7.09;100.00
21828;BME280;11076;47.942;11.804;2023-04-19T02:59:07;94594.91;;;7.01;100.00
21828;BME280;11076;47.942;11.804;2023-04-19T03:04:10;94585.03;;;6.94;100.00
21828;BME280;11076;47.942;11.804;2023-04-19T03:09:14;94592.38;;;6.92;100.00
21828;BME280;11076;47.942;11.804;2023-04-19T03:14:17;94587.28;;;6.97;100.00
21828;BME280;11076;47.942;11.804;2023-04-19T03:19:19;94583.50;;;7.07;100.00
21828;BME280;11076;47.942;11.804;2023-04-19T03:24:29;94576.81;;;7.17;100.00
21828;BME280;11076;47.942;11.804;2023-04-19T03:29:34;94571.13;;;7.21;100.00
21828;BME280;11076;47.942;11.804;2023-04-19T03:34:43;94575.25;;;7.02;100.00
21828;BME280;11076;47.942;11.804;2023-04-19T03:39:46;94569.09;;;6.94;100.00
21828;BME280;11076;47.942;11.804;2023-04-19T03:44:54;94566.59;;;6.93;100.00
21828;BME280;11076;47.942;11.804;2023-04-19T03:49:58;94564.50;;;6.88;100.00
21828;BME280;11076;47.942;11.804;2023-04-19T03:55:03;94557.94;;;6.84;100.00
21828;BME280;11076;47.942;11.804;2023-04-19T04:00:12;94568.00;;;6.89;100.00
21828;BME280;11076;47.942;11.804;2023-04-19T04:05:15;94565.16;;;6.90;100.00
21828;BME280;11076;47.942;11.804;2023-04-19T04:10:18;94569.81;;;6.88;100.00
21828;BME280;11076;47.942;11.804;2023-04-19T04:15:21;94564.94;;;6.92;100.00
21828;BME280;11076;47.942;11.804;2023-04-19T04:20:27;94573.13;;;6.90;100.00
21828;BME280;11076;47.942;11.804;2023-04-19T04:25:36;94567.47;;;7.00;100.00
21828;BME280;11076;47.942;11.804;2023-04-19T04:30:44;94573.63;;;7.01;100.00
21828;BME280;11076;47.942;11.804;2023-04-19T04:35:47;94571.19;;;7.06;100.00
21828;BME280;11076;47.942;11.804;2023-04-19T04:40:55;94570.56;;;7.04;100.00
21828;BME280;11076;47.942;11.804;2023-04-19T04:45:58;94569.56;;;7.05;100.00
21828;BME280;11076;47.942;11.804;2023-04-19T04:51:05;94565.53;;;7.15;100.00
21828;BME280;11076;47.942;11.804;2023-04-19T04:56:09;94569.28;;;7.21;100.00
21828;BME280;11076;47.942;11.804;2023-04-19T05:01:12;94562.81;;;7.30;100.00
21828;BME280;11076;47.942;11.804;2023-04-19T05:06:16;94557.03;;;7.27;100.00
21828;BME280;11076;47.942;11.804;2023-04-19T05:11:19;94561.03;;;7.16;100.00
21828;BME280;11076;47.942;11.804;2023-04-19T05:16:22;94560.28;;;7.22;100.00
21828;BME280;11076;47.942;11.804;2023-04-19T05:21:24;94567.13;;;7.10;100.00
21828;BME280;11076;47.942;11.804;2023-04-19T05:26:28;94564.47;;;7.10;100.00
21828;BME280;11076;47.942;11.804;2023-04-19T05:31:30;94559.31;;;7.02;100.00
21828;BME280;11076;47.942;11.804;2023-04-19T05:36:45;94557.38;;;7.17;100.00
21828;BME280;11076;47.942;11.804;2023-04-19T05:41:49;94557.84;;;7.27;100.00
21828;BME280;11076;47.942;11.804;2023-04-19T05:46:52;94553.41;;;7.34;100.00
21828;BME280;11076;47.942;11.804;2023-04-19T05:52:14;94552.38;;;7.35;100.00
21828;BME280;11076;47.942;11.804;2023-04-19T05:57:29;94548.09;;;7.34;100.00
21828;BME280;11076;47.942;11.804;2023-04-19T06:02:32;94549.03;;;7.55;100.00
21828;BME280;11076;47.942;11.804;2023-04-19T06:07:35;94549.06;;;7.62;100.00
21828;BME280;11076;47.942;11.804;2023-04-19T06:12:41;94543.78;;;7.68;100.00
21828;BME280;11076;47.942;11.804;2023-04-19T06:17:43;94547.91;;;7.77;100.00
21828;BME280;11076;47.942;11.804;2023-04-19T06:22:47;94552.22;;;7.72;100.00
21828;BME280;11076;47.942;11.804;2023-04-19T06:27:49;94542.75;;;7.69;100.00
21828;BME280;11076;47.942;11.804;2023-04-19T06:32:52;94545.19;;;7.64;100.00
21828;BME280;11076;47.942;11.804;2023-04-19T06:37:54;94543.63;;;7.76;100.00
21828;BME280;11076;47.942;11.804;2023-04-19T06:42:57;94551.59;;;7.76;100.00
21828;BME280;11076;47.942;11.804;2023-04-19T06:47:59;94541.41;;;7.80;100.00
21828;BME280;11076;47.942;11.804;2023-04-19T06:53:03;94550.16;;;7.74;100.00
21828;BME280;11076;47.942;11.804;2023-04-19T06:58:05;94539.13;;;7.77;100.00
21828;BME280;11076;47.942;11.804;2023-04-19T07:03:11;94548.03;;;7.56;100.00
21828;BME280;11076;47.942;11.804;2023-04-19T07:08:14;94546.06;;;7.36;100.00
21828;BME280;11076;47.942;11.804;2023-04-19T07:13:17;94535.03;;;7.40;100.00
21828;BME280;11076;47.942;11.804;2023-04-19T07:18:19;94539.63;;;7.52;100.00
21828;BME280;11076;47.942;11.804;2023-04-19T07:23:22;94541.75;;;7.35;100.00
21828;BME280;11076;47.942;11.804;2023-04-19T07:28:24;94537.16;;;7.57;100.00
21828;BME280;11076;47.942;11.804;2023-04-19T07:33:26;94528.41;;;7.64;100.00
21828;BME280;11076;47.942;11.804;2023-04-19T07:38:29;94533.19;;;7.82;100.00
21828;BME280;11076;47.942;11.804;2023-04-19T07:43:31;94527.06;;;7.81;100.00
21828;BME280;11076;47.942;11.804;2023-04-19T07:48:34;94521.13;;;7.86;100.00
21828;BME280;11076;47.942;11.804;2023-04-19T07:53:37;94521.41;;;8.04;100.00
21828;BME280;11076;47.942;11.804;2023-04-19T07:58:40;94514.91;;;8.27;100.00
21828;BME280;11076;47.942;11.804;2023-04-19T08:03:42;94529.28;;;8.39;100.00
21828;BME280;11076;47.942;11.804;2023-04-19T08:08:45;94513.53;;;8.38;100.00
21828;BME280;11076;47.942;11.804;2023-04-19T08:13:49;94522.47;;;8.16;100.00
21828;BME280;11076;47.942;11.804;2023-04-19T08:18:56;94520.25;;;8.27;100.00
21828;BME280;11076;47.942;11.804;2023-04-19T08:23:59;94515.34;;;8.37;100.00
21828;BME280;11076;47.942;11.804;2023-04-19T08:29:01;94516.16;;;8.31;100.00
21828;BME280;11076;47.942;11.804;2023-04-19T08:34:04;94514.28;;;8.25;100.00
21828;BME280;11076;47.942;11.804;2023-04-19T08:39:06;94507.91;;;8.12;100.00
21828;BME280;11076;47.942;11.804;2023-04-19T08:44:11;94509.16;;;8.16;100.00
21828;BME280;11076;47.942;11.804;2023-04-19T08:49:15;94506.72;;;8.22;100.00
21828;BME280;11076;47.942;11.804;2023-04-19T08:54:21;94502.44;;;8.41;100.00
21828;BME280;11076;47.942;11.804;2023-04-19T08:59:24;94501.47;;;8.48;100.00
21828;BME280;11076;47.942;11.804;2023-04-19T09:04:26;94486.31;;;8.69;100.00
21828;BME280;11076;47.942;11.804;2023-04-19T09:09:37;94492.06;;;8.66;100.00
21828;BME280;11076;47.942;11.804;2023-04-19T09:14:45;94472.47;;;9.39;100.00
21828;BME280;11076;47.942;11.804;2023-04-19T09:19:56;94459.84;;;9.79;100.00
21828;BME280;11076;47.942;11.804;2023-04-19T09:24:59;94462.78;;;9.51;100.00
21828;BME280;11076;47.942;11.804;2023-04-19T09:30:24;94460.00;;;9.39;100.00
21828;BME280;11076;47.942;11.804;2023-04-19T09:35:41;94460.38;;;9.43;100.00
21828;BME280;11076;47.942;11.804;2023-04-19T09:40:44;94461.19;;;9.50;100.00
21828;BME280;11076;47.942;11.804;2023-04-19T09:45:46;94451.59;;;9.87;100.00
21828;BME280;11076;47.942;11.804;2023-04-19T09:50:56;94450.22;;;9.71;100.00
21828;BME280;11076;47.942;11.804;2023-04-19T09:56:01;94445.78;;;9.52;100.00
21828;BME280;11076;47.942;11.804;2023-04-19T10:01:09;94443.34;;;9.44;100.00
21828;BME280;11076;47.942;11.804;2023-04-19T10:06:17;94439.97;;;9.03;100.00
21828;BME280;11076;47.942;11.804;2023-04-19T10:11:25;94430.16;;;9.55;100.00
21828;BME280;11076;47.942;11.804;2023-04-19T10:16:29;94425.41;;;10.41;100.00
21828;BME280;11076;47.942;11.804;2023-04-19T10:21:32;94424.00;;;10.64;97.29
21828;BME280;11076;47.942;11.804;2023-04-19T10:27:10;94417.69;;;11.02;95.50
21828;BME280;11076;47.942;11.804;2023-04-19T10:32:13;94414.91;;;11.33;96.93
21828;BME280;11076;47.942;11.804;2023-04-19T10:37:16;94409.31;;;12.21;94.98
21828;BME280;11076;47.942;11.804;2023-04-19T10:42:18;94398.81;;;12.73;94.19
21828;BME280;11076;47.942;11.804;2023-04-19T10:47:39;94386.88;;;13.63;92.27
21828;BME280;11076;47.942;11.804;2023-04-19T10:52:42;94380.91;;;14.47;86.17
21828;BME280;11076;47.942;11.804;2023-04-19T10:58:03;94363.78;;;14.37;81.22
21828;BME280;11076;47.942;11.804;2023-04-19T11:08:46;94342.78;;;14.84;81.40
21828;BME280;11076;47.942;11.804;2023-04-19T11:13:49;94336.06;;;14.36;80.07
21828;BME280;11076;47.942;11.804;2023-04-19T11:18:51;94339.75;;;13.44;81.89
21828;BME280;11076;47.942;11.804;2023-04-19T11:24:09;94329.19;;;13.54;77.69
21828;BME280;11076;47.942;11.804;2023-04-19T11:29:12;94320.91;;;14.30;75.64
21828;BME280;11076;47.942;11.804;2023-04-19T11:34:15;94307.41;;;14.59;74.67
21828;BME280;11076;47.942;11.804;2023-04-19T11:39:18;94307.22;;;14.82;70.65
21828;BME280;11076;47.942;11.804;2023-04-19T11:44:20;94294.34;;;14.67;72.95
21828;BME280;11076;47.942;11.804;2023-04-19T11:49:31;94301.41;;;13.89;72.54
21828;BME280;11076;47.942;11.804;2023-04-19T11:54:34;94312.88;;;12.68;78.64
21828;BME280;11076;47.942;11.804;2023-04-19T11:59:37;94323.47;;;11.18;81.92
21828;BME280;11076;47.942;11.804;2023-04-19T12:04:40;94313.91;;;10.48;88.44
21828;BME280;11076;47.942;11.804;2023-04-19T12:09:42;94306.66;;;10.05;91.54
21828;BME280;11076;47.942;11.804;2023-04-19T12:14:51;94307.94;;;9.64;94.33
21828;BME280;11076;47.942;11.804;2023-04-19T12:19:53;94309.81;;;9.25;96.34
21828;BME280;11076;47.942;11.804;2023-04-19T12:24:56;94317.06;;;9.05;99.43
21828;BME280;11076;47.942;11.804;2023-04-19T12:29:58;94327.44;;;8.54;100.00
21828;BME280;11076;47.942;11.804;2023-04-19T12:35:01;94323.53;;;8.37;100.00
21828;BME280;11076;47.942;11.804;2023-04-19T12:40:03;94312.09;;;8.43;100.00
21828;BME280;11076;47.942;11.804;2023-04-19T12:45:06;94318.63;;;8.27;100.00
21828;BME280;11076;47.942;11.804;2023-04-19T12:50:09;94310.03;;;8.32;100.00
21828;BME280;11076;47.942;11.804;2023-04-19T12:55:12;94298.72;;;8.63;100.00
21828;BME280;11076;47.942;11.804;2023-04-19T13:00:14;94296.91;;;8.57;100.00
21828;BME280;11076;47.942;11.804;2023-04-19T13:05:17;94305.94;;;8.23;100.00
21828;BME280;11076;47.942;11.804;2023-04-19T13:10:19;94290.97;;;8.35;100.00
21828;BME280;11076;47.942;11.804;2023-04-19T13:15:22;94289.94;;;8.29;100.00
21828;BME280;11076;47.942;11.804;2023-04-19T13:20:24;94296.84;;;8.77;100.00
21828;BME280;11076;47.942;11.804;2023-04-19T13:25:27;94291.56;;;8.57;100.00
21828;BME280;11076;47.942;11.804;2023-04-19T13:30:29;94289.03;;;8.82;100.00
21828;BME280;11076;47.942;11.804;2023-04-19T13:35:32;94280.78;;;8.97;100.00
21828;BME280;11076;47.942;11.804;2023-04-19T13:40:34;94284.22;;;8.52;100.00
21828;BME280;11076;47.942;11.804;2023-04-19T13:45:36;94284.63;;;8.36;100.00
21828;BME280;11076;47.942;11.804;2023-04-19T13:50:38;94276.47;;;8.04;100.00
21828;BME280;11076;47.942;11.804;2023-04-19T13:55:41;94282.00;;;7.83;100.00
21828;BME280;11076;47.942;11.804;2023-04-19T14:00:44;94271.97;;;7.98;100.00
21828;BME280;11076;47.942;11.804;2023-04-19T14:05:46;94282.63;;;7.98;100.00
21828;BME280;11076;47.942;11.804;2023-04-19T14:10:49;94278.50;;;7.75;100.00
21828;BME280;11076;47.942;11.804;2023-04-19T14:15:52;94286.25;;;7.57;100.00
21828;BME280;11076;47.942;11.804;2023-04-19T14:20:54;94287.47;;;7.34;100.00
21828;BME280;11076;47.942;11.804;2023-04-19T14:25:56;94281.09;;;7.22;100.00
21828;BME280;11076;47.942;11.804;2023-04-19T14:30:59;94270.66;;;7.27;100.00
21828;BME280;11076;47.942;11.804;2023-04-19T14:36:01;94269.88;;;7.53;100.00
21828;BME280;11076;47.942;11.804;2023-04-19T14:41:04;94260.88;;;7.68;100.00
21828;BME280;11076;47.942;11.804;2023-04-19T14:46:06;94270.31;;;7.77;100.00
21828;BME280;11076;47.942;11.804;2023-04-19T14:51:11;94261.72;;;7.68;100.00
21828;BME280;11076;47.942;11.804;2023-04-19T14:56:13;94274.06;;;7.01;100.00
21828;BME280;11076;47.942;11.804;2023-04-19T15:01:16;94282.09;;;6.25;100.00
21828;BME280;11076;47.942;11.804;2023-04-19T15:06:18;94288.31;;;5.89;100.00
21828;BME280;11076;47.942;11.804;2023-04-19T15:11:21;94287.81;;;5.78;100.00
21828;BME280;11076;47.942;11.804;2023-04-19T15:16:24;94286.56;;;5.74;100.00
21828;BME280;11076;47.942;11.804;2023-04-19T15:21:27;94287.19;;;5.76;100.00
21828;BME280;11076;47.942;11.804;2023-04-19T15:26:29;94302.13;;;5.77;100.00
21828;BME280;11076;47.942;11.804;2023-04-19T15:31:32;94314.31;;;5.72;100.00
21828;BME280;11076;47.942;11.804;2023-04-19T15:36:34;94320.09;;;5.61;100.00
21828;BME280;11076;47.942;11.804;2023-04-19T15:41:37;94322.19;;;5.44;100.00
21828;BME280;11076;47.942;11.804;2023-04-19T15:46:40;94320.44;;;5.29;100.00
21828;BME280;11076;47.942;11.804;2023-04-19T15:51:42;94326.84;;;5.20;100.00
21828;BME280;11076;47.942;11.804;2023-04-19T15:56:45;94332.09;;;4.98;100.00
21828;BME280;11076;47.942;11.804;2023-04-19T16:01:47;94346.09;;;4.63;100.00
21828;BME280;11076;47.942;11.804;2023-04-19T16:06:50;94352.59;;;4.45;100.00
21828;BME280;11076;47.942;11.804;2023-04-19T16:11:52;94355.06;;;4.32;100.00
21828;BME280;11076;47.942;11.804;2023-04-19T16:16:55;94364.38;;;4.28;100.00
21828;BME280;11076;47.942;11.804;2023-04-19T16:21:57;94357.63;;;4.40;100.00
21828;BME280;11076;47.942;11.804;2023-04-19T16:27:03;94355.63;;;4.42;100.00
21828;BME280;11076;47.942;11.804;2023-04-19T16:32:07;94361.16;;;4.32;100.00
21828;BME280;11076;47.942;11.804;2023-04-19T16:37:12;94365.66;;;4.32;100.00
21828;BME280;11076;47.942;11.804;2023-04-19T16:42:14;94375.28;;;4.25;100.00
21828;BME280;11076;47.942;11.804;2023-04-19T16:47:17;94376.22;;;4.32;100.00
21828;BME280;11076;47.942;11.804;2023-04-19T16:52:20;94378.25;;;4.30;100.00
21828;BME280;11076;47.942;11.804;2023-04-19T16:57:22;94382.34;;;4.32;100.00
21828;BME280;11076;47.942;11.804;2023-04-19T17:02:25;94377.88;;;4.33;100.00
21828;BME280;11076;47.942;11.804;2023-04-19T17:07:27;94382.41;;;4.24;100.00
21828;BME280;11076;47.942;11.804;2023-04-19T17:12:30;94396.94;;;3.90;100.00
21828;BME280;11076;47.942;11.804;2023-04-19T17:17:32;94395.00;;;3.61;100.00
21828;BME280;11076;47.942;11.804;2023-04-19T17:22:35;94394.03;;;3.54;100.00
21828;BME280;11076;47.942;11.804;2023-04-19T17:27:37;94388.81;;;3.46;100.00
21828;BME280;11076;47.942;11.804;2023-04-19T17:32:40;94385.19;;;3.47;100.00
21828;BME280;11076;47.942;11.804;2023-04-19T17:37:42;94384.00;;;3.49;100.00
21828;BME280;11076;47.942;11.804;2023-04-19T17:42:44;94376.06;;;3.49;100.00
21828;BME280;11076;47.942;11.804;2023-04-19T17:47:47;94373.31;;;3.43;100.00
21828;BME280;11076;47.942;11.804;2023-04-19T17:52:49;94367.06;;;3.35;100.00
21828;BME280;11076;47.942;11.804;2023-04-19T17:57:52;94381.63;;;3.31;100.00
21828;BME280;11076;47.942;11.804;2023-04-19T18:02:54;94377.69;;;3.27;100.00
21828;BME280;11076;47.942;11.804;2023-04-19T18:07:56;94369.34;;;3.15;100.00
21828;BME280;11076;47.942;11.804;2023-04-19T18:12:59;94371.13;;;3.23;100.00
21828;BME280;11076;47.942;11.804;2023-04-19T18:18:01;94368.16;;;3.18;100.00
21828;BME280;11076;47.942;11.804;2023-04-19T18:23:04;94367.81;;;3.21;100.00
21828;BME280;11076;47.942;11.804;2023-04-19T18:28:06;94362.53;;;3.21;100.00
21828;BME280;11076;47.942;11.804;2023-04-19T18:33:09;94364.22;;;3.14;100.00
21828;BME280;11076;47.942;11.804;2023-04-19T18:38:11;94359.63;;;3.08;100.00
21828;BME280;11076;47.942;11.804;2023-04-19T18:43:14;94356.06;;;3.01;100.00
21828;BME280;11076;47.942;11.804;2023-04-19T18:48:16;94358.06;;;2.98;100.00
21828;BME280;11076;47.942;11.804;2023-04-19T18:53:19;94364.63;;;3.03;100.00
21828;BME280;11076;47.942;11.804;2023-04-19T18:58:21;94372.72;;;3.01;100.00
21828;BME280;11076;47.942;11.804;2023-04-19T19:03:24;94372.25;;;2.97;100.00
21828;BME280;11076;47.942;11.804;2023-04-19T19:08:31;94372.72;;;3.01;100.00
21828;BME280;11076;47.942;11.804;2023-04-19T19:13:33;94368.63;;;2.98;100.00
21828;BME280;11076;47.942;11.804;2023-04-19T19:18:35;94377.63;;;3.04;100.00
21828;BME280;11076;47.942;11.804;2023-04-19T19:23:38;94380.13;;;3.06;100.00
21828;BME280;11076;47.942;11.804;2023-04-19T19:28:43;94380.28;;;3.04;100.00
21828;BME280;11076;47.942;11.804;2023-04-19T19:33:45;94377.00;;;3.02;100.00
21828;BME280;11076;47.942;11.804;2023-04-19T19:38:52;94379.63;;;3.02;100.00
21828;BME280;11076;47.942;11.804;2023-04-19T19:43:55;94369.56;;;3.06;100.00
21828;BME280;11076;47.942;11.804;2023-04-19T19:48:57;94365.22;;;3.13;100.00
21828;BME280;11076;47.942;11.804;2023-04-19T19:53:59;94374.63;;;3.15;100.00
21828;BME280;11076;47.942;11.804;2023-04-19T19:59:02;94366.78;;;3.30;100.00
21828;BME280;11076;47.942;11.804;2023-04-19T20:04:04;94366.44;;;3.33;100.00
21828;BME280;11076;47.942;11.804;2023-04-19T20:09:08;94363.38;;;3.45;100.00
21828;BME280;11076;47.942;11.804;2023-04-19T20:14:10;94354.28;;;3.47;100.00
21828;BME280;11076;47.942;11.804;2023-04-19T20:19:13;94358.31;;;3.58;100.00
21828;BME280;11076;47.942;11.804;2023-04-19T20:24:15;94348.69;;;3.65;100.00
21828;BME280;11076;47.942;11.804;2023-04-19T20:29:18;94349.06;;;3.62;100.00
21828;BME280;11076;47.942;11.804;2023-04-19T20:34:21;94343.22;;;3.67;100.00
21828;BME280;11076;47.942;11.804;2023-04-19T20:39:23;94346.16;;;3.72;100.00
21828;BME280;11076;47.942;11.804;2023-04-19T20:44:26;94331.66;;;3.68;100.00
21828;BME280;11076;47.942;11.804;2023-04-19T20:49:28;94338.13;;;3.65;100.00
21828;BME280;11076;47.942;11.804;2023-04-19T20:54:31;94340.94;;;3.41;100.00
21828;BME280;11076;47.942;11.804;2023-04-19T20:59:34;94337.28;;;3.42;100.00
21828;BME280;11076;47.942;11.804;2023-04-19T21:04:37;94333.91;;;3.33;100.00
21828;BME280;11076;47.942;11.804;2023-04-19T21:09:40;94335.09;;;3.30;100.00
21828;BME280;11076;47.942;11.804;2023-04-19T21:14:42;94333.41;;;3.29;100.00
21828;BME280;11076;47.942;11.804;2023-04-19T21:19:46;94333.00;;;3.17;100.00
21828;BME280;11076;47.942;11.804;2023-04-19T21:24:48;94317.91;;;3.03;100.00
21828;BME280;11076;47.942;11.804;2023-04-19T21:29:50;94318.13;;;2.93;100.00
21828;BME280;11076;47.942;11.804;2023-04-19T21:34:53;94318.28;;;2.92;100.00
21828;BME280;11076;47.942;11.804;2023-04-19T21:39:55;94304.91;;;2.93;100.00
21828;BME280;11076;47.942;11.804;2023-04-19T21:44:58;94301.53;;;3.08;100.00
21828;BME280;11076;47.942;11.804;2023-04-19T21:50:01;94303.38;;;3.30;100.00
21828;BME280;11076;47.942;11.804;2023-04-19T21:55:04;94303.94;;;3.41;100.00
21828;BME280;11076;47.942;11.804;2023-04-19T22:00:07;94294.28;;;3.48;100.00
21828;BME280;11076;47.942;11.804;2023-04-19T22:05:14;94288.91;;;3.41;100.00
21828;BME280;11076;47.942;11.804;2023-04-19T22:10:17;94293.56;;;3.39;100.00
21828;BME280;11076;47.942;11.804;2023-04-19T22:15:20;94296.53;;;3.36;100.00
21828;BME280;11076;47.942;11.804;2023-04-19T22:20:24;94293.03;;;3.21;100.00
21828;BME280;11076;47.942;11.804;2023-04-19T22:25:26;94291.09;;;3.14;100.00
21828;BME280;11076;47.942;11.804;2023-04-19T22:30:29;94287.97;;;3.11;100.00
21828;BME280;11076;47.942;11.804;2023-04-19T22:35:31;94282.09;;;3.24;100.00
21828;BME280;11076;47.942;11.804;2023-04-19T22:40:34;94287.22;;;3.25;100.00
21828;BME280;11076;47.942;11.804;2023-04-19T22:45:36;94276.69;;;3.40;100.00
21828;BME280;11076;47.942;11.804;2023-04-19T22:50:39;94267.16;;;3.54;100.00
21828;BME280;11076;47.942;11.804;2023-04-19T22:55:44;94268.44;;;3.58;100.00
21828;BME280;11076;47.942;11.804;2023-04-19T23:00:46;94270.16;;;3.51;100.00
21828;BME280;11076;47.942;11.804;2023-04-19T23:05:48;94261.69;;;3.55;100.00
21828;BME280;11076;47.942;11.804;2023-04-19T23:10:51;94252.13;;;3.54;100.00
21828;BME280;11076;47.942;11.804;2023-04-19T23:15:54;94249.84;;;3.51;100.00
21828;BME280;11076;47.942;11.804;2023-04-19T23:20:57;94237.09;;;3.55;100.00
21828;BME280;11076;47.942;11.804;2023-04-19T23:26:00;94222.50;;;3.59;100.00
21828;BME280;11076;47.942;11.804;2023-04-19T23:31:02;94223.22;;;3.53;100.00
21828;BME280;11076;47.942;11.804;2023-04-19T23:36:05;94219.56;;;3.54;100.00
21828;BME280;11076;47.942;11.804;2023-04-19T23:41:10;94226.44;;;3.25;100.00
21828;BME280;11076;47.942;11.804;2023-04-19T23:46:13;94220.22;;;3.18;100.00
21828;BME280;11076;47.942;11.804;2023-04-19T23:51:15;94218.59;;;3.17;100.00
21828;BME280;11076;47.942;11.804;2023-04-19T23:56:18;94211.78;;;3.23;100.00
